• Join FlightAware (Why Join?)
  • Login
  • US Flag 
08:37AM EDT


 

Airport Tracker/Info


-or-


 

Live Flight TrackerFlight Track Log ✈ JAL110 ✈ 02-May-2013 ✈ RJOO / ITM - RJTT / HND

Flight Track Log - Related Links

Times and Time Zones

All times are in EDT time to prevent confusion due to time zone crossing. See the JAL110 flight status page for this flight to view local times or setup timezone preferences in your user account.

Time Position Orientation Groundspeed Altitude Reporting Facility
EDT Latitude Longitude Course Direction KTS MPH feet Rate Location/Type
08:41PM 34.8499 135.7691 77° East  Level Estimated
08:42PM 34.8712 135.8795 77° East  Level Estimated
08:43PM 34.8924 135.9899 77° East  Level Estimated
08:44PM 34.9134 136.1004 77° East  Level Estimated
08:45PM 34.9344 136.2110 77° East  Level Estimated
08:46PM 34.9553 136.3216 77° East  Level Estimated
08:47PM 34.9761 136.4323 77° East  Level Estimated
08:48PM 34.9967 136.5430 77° East  Level Estimated
08:49PM 35.0173 136.6538 77° East  Level Estimated
08:50PM 35.0383 136.7676 77° East  Level Estimated
08:51PM 35.0592 136.8814 77° East  Level Estimated
08:52PM 35.0800 136.9953 77° East  Level Estimated
08:53PM 35.1007 137.1092 77° East  Level Estimated
08:54PM 35.1213 137.2232 78° East  Level Estimated
08:55PM 35.1418 137.3372 78° East  Level Estimated
08:56PM 35.1621 137.4514 78° East  Level Estimated
08:57PM 35.1824 137.5655 78° East  Level Estimated
08:58PM 35.2025 137.6797 78° East  Level Estimated
08:59PM 35.2226 137.7940 78° East  Level Estimated
09:00PM 35.2425 137.9084 78° East  Level Estimated
09:01PM 35.2624 138.0228 78° East  Level Estimated
09:02PM 35.2821 138.1372 78° East  Level Estimated
09:03PM 35.3017 138.2517 78° East  Level Estimated
09:04PM 35.3212 138.3663 78° East  Level Estimated
09:05PM 35.3406 138.4809 78° East  Level Estimated
09:06PM 35.3599 138.5956 78° East  Level Estimated
09:07PM 35.3791 138.7103 78° East  Level Estimated
09:08PM 35.3982 138.8250 78° East  Level Estimated
09:09PM 35.4162 138.9341 79° East  Level Estimated
09:10PM 35.4341 139.0433 79° East  Level Estimated
09:11PM 35.4519 139.1525 79° East  Level Estimated
09:12PM 35.4697 139.2617 79° East  Level Estimated
09:13PM 35.4873 139.3710 79° East  Level Estimated
09:14PM 35.5048 139.4803 79° East  Level Estimated
09:15PM 35.5222 139.5897 79° East  Level Estimated
09:16PM 35.5396 139.6991 79° East  Level Estimated
09:17PM 35.5523 139.7797 79° East  Level Estimated
09:18PM 35.5523 139.7797 122° Southeast  Level Estimated
09:19PM 35.5523 139.7797 122° Southeast  Level Estimated
09:20PM 35.5523 139.7797 122° Southeast  Level Estimated
09:21PM 35.5523 139.7797 122° Southeast  Level Estimated
09:22PM 35.5523 139.7797 122° Southeast  Level Estimated
09:23PM 35.5523 139.7797 122° Southeast  Level Estimated